createdAt,value
2022-12-08T00:00:50.403Z,100.00
2022-12-08T00:03:17.172Z,100.00
2022-12-08T00:06:07.470Z,100.00
2022-12-08T00:08:53.014Z,100.00
2022-12-08T00:11:19.929Z,100.00
2022-12-08T00:13:46.608Z,100.00
2022-12-08T00:16:13.039Z,100.00
2022-12-08T00:18:39.419Z,100.00
2022-12-08T00:21:06.242Z,100.00
2022-12-08T00:23:32.526Z,100.00
2022-12-08T00:26:05.040Z,100.00
2022-12-08T00:28:32.413Z,100.00
2022-12-08T00:30:58.772Z,100.00
2022-12-08T00:33:25.270Z,100.00
2022-12-08T00:35:51.924Z,100.00
2022-12-08T00:38:18.226Z,100.00
2022-12-08T00:40:47.753Z,100.00
2022-12-08T00:43:14.605Z,100.00
2022-12-08T00:45:41.508Z,100.00
2022-12-08T00:48:07.939Z,100.00
2022-12-08T00:50:34.595Z,100.00
2022-12-08T00:53:00.916Z,100.00
2022-12-08T00:55:27.220Z,100.00
2022-12-08T00:57:53.780Z,100.00
2022-12-08T01:00:20.454Z,100.00
2022-12-08T01:02:46.802Z,100.00
2022-12-08T01:05:13.450Z,100.00
2022-12-08T01:07:39.763Z,100.00
2022-12-08T01:10:07.138Z,100.00
2022-12-08T01:12:33.919Z,100.00
2022-12-08T01:15:02.551Z,100.00
2022-12-08T01:17:29.261Z,100.00
2022-12-08T01:19:55.875Z,100.00
2022-12-08T01:22:22.188Z,100.00
2022-12-08T01:24:48.472Z,100.00
2022-12-08T01:27:16.164Z,100.00
2022-12-08T01:29:42.447Z,100.00
2022-12-08T01:32:09.437Z,100.00
2022-12-08T01:34:36.027Z,100.00
2022-12-08T01:37:02.308Z,100.00
2022-12-08T01:39:28.693Z,100.00
2022-12-08T01:41:55.308Z,100.00
2022-12-08T01:44:21.499Z,100.00
2022-12-08T01:46:48.887Z,100.00
2022-12-08T01:49:22.918Z,100.00
2022-12-08T01:51:55.411Z,100.00
2022-12-08T01:54:23.552Z,100.00
2022-12-08T01:57:03.346Z,100.00
2022-12-08T01:59:30.736Z,100.00
2022-12-08T02:01:58.181Z,100.00
2022-12-08T02:04:24.769Z,100.00
2022-12-08T02:06:51.920Z,100.00
2022-12-08T02:09:19.632Z,100.00
2022-12-08T02:11:46.285Z,100.00
2022-12-08T02:14:13.102Z,100.00
2022-12-08T02:16:50.151Z,100.00
2022-12-08T02:19:54.970Z,100.00
2022-12-08T02:22:47.660Z,100.00
2022-12-08T02:25:26.636Z,100.00
2022-12-08T02:28:22.836Z,100.00
2022-12-08T02:30:55.454Z,100.00
2022-12-08T02:33:56.223Z,100.00
2022-12-08T02:36:26.257Z,100.00
2022-12-08T02:39:02.186Z,100.00
2022-12-08T02:41:35.578Z,100.00
2022-12-08T02:44:22.071Z,100.00
2022-12-08T02:46:52.989Z,100.00
2022-12-08T02:49:19.270Z,100.00
2022-12-08T02:51:45.563Z,100.00
2022-12-08T02:54:12.159Z,100.00
2022-12-08T02:57:05.044Z,100.00
2022-12-08T02:59:37.673Z,100.00
2022-12-08T03:02:06.675Z,100.00
2022-12-08T03:05:07.857Z,100.00
2022-12-08T03:07:41.711Z,100.00
2022-12-08T03:10:22.838Z,100.00
2022-12-08T03:12:52.405Z,100.00
2022-12-08T03:15:20.507Z,100.00
2022-12-08T03:17:50.237Z,100.00
2022-12-08T03:20:21.066Z,100.00
2022-12-08T03:22:49.810Z,100.00
2022-12-08T03:25:17.642Z,100.00
2022-12-08T03:27:44.076Z,100.00
2022-12-08T03:30:11.057Z,100.00
2022-12-08T03:32:59.046Z,100.00
2022-12-08T03:35:31.045Z,100.00
2022-12-08T03:38:10.735Z,100.00
2022-12-08T03:40:37.856Z,100.00
2022-12-08T03:43:04.394Z,100.00
2022-12-08T03:45:30.702Z,100.00
2022-12-08T03:47:57.581Z,100.00
2022-12-08T03:50:23.947Z,100.00
2022-12-08T03:52:50.264Z,100.00
2022-12-08T03:55:17.085Z,100.00
2022-12-08T03:57:43.614Z,100.00
2022-12-08T04:00:14.211Z,100.00
2022-12-08T04:02:40.931Z,100.00
2022-12-08T04:05:07.746Z,100.00
2022-12-08T04:07:34.019Z,100.00
2022-12-08T04:10:00.566Z,100.00
2022-12-08T04:12:26.836Z,100.00
2022-12-08T04:14:53.113Z,100.00
2022-12-08T04:17:19.698Z,100.00
2022-12-08T04:19:45.977Z,100.00
2022-12-08T04:22:12.274Z,100.00
2022-12-08T04:24:38.866Z,100.00
2022-12-08T04:27:05.153Z,100.00
2022-12-08T04:29:31.459Z,100.00
2022-12-08T04:31:58.100Z,100.00
2022-12-08T04:34:24.482Z,100.00
2022-12-08T04:36:50.768Z,100.00
2022-12-08T04:39:17.351Z,100.00
2022-12-08T04:41:43.621Z,100.00
2022-12-08T04:44:09.900Z,100.00
2022-12-08T04:46:41.688Z,100.00
2022-12-08T04:49:09.588Z,100.00
2022-12-08T04:51:35.908Z,100.00
2022-12-08T04:54:02.507Z,100.00
2022-12-08T04:56:28.786Z,100.00
2022-12-08T04:58:55.068Z,100.00
2022-12-08T05:01:21.736Z,100.00
2022-12-08T05:03:48.084Z,100.00
2022-12-08T05:06:14.559Z,100.00
2022-12-08T05:08:41.915Z,100.00
2022-12-08T05:11:11.143Z,100.00
2022-12-08T05:13:37.435Z,100.00
2022-12-08T05:16:12.530Z,100.00
2022-12-08T05:18:40.251Z,100.00
2022-12-08T05:21:07.276Z,100.00
2022-12-08T05:23:33.751Z,100.00
2022-12-08T05:26:00.040Z,100.00
2022-12-08T05:28:43.307Z,100.00
2022-12-08T05:31:11.379Z,100.00
2022-12-08T05:33:38.079Z,100.00
2022-12-08T05:36:04.441Z,100.00
2022-12-08T05:38:30.835Z,100.00
2022-12-08T05:40:57.418Z,100.00
2022-12-08T05:43:23.732Z,100.00
2022-12-08T05:45:50.450Z,100.00
2022-12-08T05:48:17.191Z,100.00
2022-12-08T05:50:48.018Z,100.00
2022-12-08T05:53:15.235Z,100.00
2022-12-08T05:55:41.792Z,100.00
2022-12-08T05:58:14.063Z,100.00
2022-12-08T06:00:41.172Z,100.00
2022-12-08T06:03:08.251Z,100.00
2022-12-08T06:05:34.999Z,100.00
2022-12-08T06:08:01.483Z,100.00
2022-12-08T06:10:28.572Z,100.00
2022-12-08T06:12:54.819Z,100.00
2022-12-08T06:15:21.161Z,100.00
2022-12-08T06:17:47.776Z,100.00
2022-12-08T06:20:14.073Z,100.00
2022-12-08T06:22:40.349Z,100.00
2022-12-08T06:25:10.155Z,100.00
2022-12-08T06:27:36.800Z,100.00
2022-12-08T06:30:03.714Z,100.00
2022-12-08T06:32:30.552Z,100.00
2022-12-08T06:34:57.034Z,100.00
2022-12-08T06:37:23.323Z,100.00
2022-12-08T06:39:50.237Z,100.00
2022-12-08T06:42:34.919Z,100.00
2022-12-08T06:45:01.539Z,100.00
2022-12-08T06:47:27.867Z,100.00
2022-12-08T06:49:54.218Z,100.00
2022-12-08T06:52:20.812Z,100.00
2022-12-08T06:54:47.154Z,100.00
2022-12-08T06:57:13.497Z,100.00
2022-12-08T06:59:40.082Z,100.00
2022-12-08T07:02:06.601Z,100.00
2022-12-08T07:04:32.917Z,100.00
2022-12-08T07:06:59.455Z,100.00
2022-12-08T07:09:28.018Z,100.00
2022-12-08T07:11:54.347Z,100.00
2022-12-08T07:14:25.114Z,100.00
2022-12-08T07:16:52.304Z,100.00
2022-12-08T07:19:19.036Z,100.00
2022-12-08T07:21:45.683Z,100.00
2022-12-08T07:24:12.123Z,100.00
2022-12-08T07:26:39.938Z,100.00
2022-12-08T07:29:06.522Z,100.00
2022-12-08T07:31:32.824Z,100.00
2022-12-08T07:33:59.119Z,100.00
2022-12-08T07:36:26.116Z,100.00
2022-12-08T07:38:55.811Z,100.00
2022-12-08T07:41:24.096Z,100.00
2022-12-08T07:43:51.567Z,100.00
2022-12-08T07:46:20.370Z,100.00
2022-12-08T07:48:47.174Z,100.00
2022-12-08T07:51:15.760Z,100.00
2022-12-08T07:53:47.217Z,100.00
2022-12-08T07:56:16.616Z,100.00
2022-12-08T07:58:43.042Z,100.00
2022-12-08T08:01:39.397Z,100.00
2022-12-08T08:04:06.609Z,100.00
2022-12-08T08:06:34.102Z,100.00
2022-12-08T08:09:01.111Z,100.00
2022-12-08T08:11:28.230Z,100.00
2022-12-08T08:13:54.577Z,100.00
2022-12-08T08:16:21.609Z,100.00
2022-12-08T08:18:49.702Z,100.00
2022-12-08T08:21:43.791Z,100.00
2022-12-08T08:24:03.552Z,100.00
2022-12-08T08:26:31.573Z,100.00
2022-12-08T08:28:57.866Z,100.00
2022-12-08T08:31:25.892Z,100.00
2022-12-08T08:33:52.826Z,100.00
2022-12-08T08:36:19.347Z,100.00
2022-12-08T08:38:46.048Z,100.00
2022-12-08T08:41:12.368Z,100.00
2022-12-08T08:43:39.301Z,100.00
2022-12-08T08:46:09.056Z,100.00
2022-12-08T08:48:36.287Z,100.00
2022-12-08T08:51:10.720Z,100.00
2022-12-08T08:53:38.371Z,100.00
2022-12-08T08:56:10.753Z,100.00
2022-12-08T08:58:37.440Z,100.00
2022-12-08T09:01:04.092Z,100.00
2022-12-08T09:03:30.500Z,100.00
2022-12-08T09:05:58.192Z,100.00
2022-12-08T09:08:25.128Z,100.00
2022-12-08T09:10:51.678Z,100.00
2022-12-08T09:13:18.252Z,100.00
2022-12-08T09:15:44.732Z,100.00
2022-12-08T09:18:11.167Z,100.00
2022-12-08T09:20:37.910Z,100.00
2022-12-08T09:23:04.928Z,100.00
2022-12-08T09:25:31.256Z,100.00
2022-12-08T09:27:57.876Z,100.00
2022-12-08T09:30:24.258Z,100.00
2022-12-08T09:32:50.598Z,100.00
2022-12-08T09:35:17.444Z,100.00
2022-12-08T09:37:46.262Z,100.00
2022-12-08T09:40:18.133Z,100.00
2022-12-08T09:42:52.759Z,100.00
2022-12-08T09:45:20.236Z,100.00
2022-12-08T09:48:06.736Z,100.00
2022-12-08T09:50:39.875Z,100.00
2022-12-08T09:53:10.575Z,100.00
2022-12-08T09:55:55.931Z,100.00
2022-12-08T09:58:32.943Z,100.00
2022-12-08T10:00:59.365Z,100.00
2022-12-08T10:03:29.893Z,100.00
2022-12-08T10:06:06.161Z,100.00
2022-12-08T10:08:59.658Z,100.00
2022-12-08T10:11:33.171Z,100.00
2022-12-08T10:14:24.776Z,100.00
2022-12-08T10:16:57.313Z,100.00
2022-12-08T10:19:25.862Z,100.00
2022-12-08T10:21:53.509Z,100.00
2022-12-08T10:24:37.352Z,100.00
2022-12-08T10:27:05.784Z,100.00
2022-12-08T10:29:32.193Z,100.00
2022-12-08T10:31:59.721Z,100.00
2022-12-08T10:34:26.423Z,100.00
2022-12-08T10:37:02.009Z,100.00
2022-12-08T10:39:32.337Z,100.00
2022-12-08T10:42:08.763Z,100.00
2022-12-08T10:45:07.209Z,100.00
2022-12-08T10:47:38.133Z,100.00
2022-12-08T10:50:27.740Z,100.00
2022-12-08T10:53:00.229Z,100.00
2022-12-08T10:55:27.720Z,100.00
2022-12-08T10:57:54.127Z,100.00
2022-12-08T11:00:29.609Z,100.00
2022-12-08T11:03:02.335Z,100.00
2022-12-08T11:05:35.953Z,100.00
2022-12-08T11:08:06.007Z,100.00
2022-12-08T11:10:38.043Z,100.00
2022-12-08T11:13:07.056Z,100.00
2022-12-08T11:15:39.307Z,100.00
2022-12-08T11:18:30.492Z,100.00
2022-12-08T11:21:07.437Z,100.00
2022-12-08T11:23:36.305Z,100.00
2022-12-08T11:26:30.381Z,100.00
2022-12-08T11:28:57.770Z,100.00
2022-12-08T11:31:41.568Z,100.00
2022-12-08T11:34:11.784Z,100.00
2022-12-08T11:36:38.399Z,100.00
2022-12-08T11:39:05.228Z,100.00
2022-12-08T11:41:38.976Z,99.86
2022-12-08T11:44:22.383Z,100.00
2022-12-08T11:46:51.965Z,99.22
2022-12-08T11:49:18.929Z,99.78
2022-12-08T11:51:54.127Z,100.00
2022-12-08T11:54:27.657Z,99.55
2022-12-08T11:57:02.056Z,100.00
2022-12-08T11:59:33.711Z,99.90
2022-12-08T12:02:03.290Z,98.98
2022-12-08T12:04:47.806Z,99.61
2022-12-08T12:07:44.719Z,97.95
2022-12-08T12:10:32.447Z,97.86
2022-12-08T12:13:14.421Z,96.69
2022-12-08T12:15:51.442Z,96.44
2022-12-08T12:18:35.926Z,95.59
2022-12-08T12:21:16.234Z,95.56
2022-12-08T12:23:45.907Z,96.19
2022-12-08T12:26:22.199Z,95.54
2022-12-08T12:29:07.954Z,95.71
2022-12-08T12:31:43.982Z,96.47
2022-12-08T12:34:32.343Z,96.81
2022-12-08T12:37:10.235Z,97.10
2022-12-08T12:39:57.996Z,97.38
2022-12-08T12:42:38.758Z,97.09
2022-12-08T12:45:17.181Z,96.56
2022-12-08T12:47:52.366Z,97.53
2022-12-08T12:50:33.100Z,97.36
2022-12-08T12:53:22.360Z,97.39
2022-12-08T12:56:03.644Z,98.48
2022-12-08T12:58:31.625Z,98.55
2022-12-08T13:01:10.304Z,99.12
2022-12-08T13:04:23.496Z,99.08
2022-12-08T13:06:50.797Z,99.10
2022-12-08T13:09:32.836Z,100.00
2022-12-08T13:12:01.651Z,100.00
2022-12-08T13:14:35.728Z,100.00
2022-12-08T13:17:16.753Z,100.00
2022-12-08T13:19:51.695Z,100.00
2022-12-08T13:22:46.420Z,100.00
2022-12-08T13:25:44.176Z,99.66
2022-12-08T13:28:21.946Z,99.87
2022-12-08T13:31:03.739Z,100.00
2022-12-08T13:33:33.338Z,100.00
2022-12-08T13:36:28.134Z,100.00
2022-12-08T13:38:57.894Z,100.00
2022-12-08T13:41:37.834Z,100.00
2022-12-08T13:45:03.602Z,100.00
2022-12-08T13:58:40.837Z,100.00
2022-12-08T14:01:22.885Z,100.00
2022-12-08T14:06:46.497Z,100.00
2022-12-08T14:09:19.645Z,100.00
2022-12-08T14:12:01.113Z,100.00
2022-12-08T14:15:02.587Z,100.00
2022-12-08T14:17:29.984Z,100.00
2022-12-08T14:20:02.341Z,100.00
2022-12-08T14:22:36.443Z,100.00
2022-12-08T14:25:05.116Z,100.00
2022-12-08T14:27:35.357Z,100.00
2022-12-08T14:30:15.931Z,100.00
2022-12-08T14:32:48.456Z,100.00
2022-12-08T14:35:26.975Z,100.00
2022-12-08T14:37:59.042Z,100.00
2022-12-08T14:40:34.346Z,100.00
2022-12-08T14:43:10.228Z,100.00
2022-12-08T14:45:39.154Z,100.00
2022-12-08T14:48:38.650Z,100.00
2022-12-08T14:51:19.134Z,100.00
2022-12-08T14:54:05.944Z,100.00
2022-12-08T14:56:51.878Z,100.00
2022-12-08T14:59:28.877Z,100.00
2022-12-08T15:02:13.478Z,100.00
2022-12-08T15:04:45.889Z,100.00
2022-12-08T15:07:27.401Z,100.00
2022-12-08T15:10:15.907Z,100.00
2022-12-08T15:13:09.585Z,100.00
2022-12-08T15:15:47.299Z,100.00
2022-12-08T15:18:19.739Z,100.00
2022-12-08T15:20:51.793Z,100.00
2022-12-08T15:23:31.179Z,100.00
2022-12-08T15:25:58.810Z,100.00
2022-12-08T15:28:30.313Z,100.00
2022-12-08T15:30:57.395Z,100.00
2022-12-08T15:33:24.131Z,100.00
2022-12-08T15:35:50.887Z,100.00
2022-12-08T15:38:21.404Z,100.00
2022-12-08T15:40:48.073Z,100.00
2022-12-08T15:43:14.616Z,100.00
2022-12-08T15:45:51.817Z,100.00
2022-12-08T15:48:27.128Z,100.00
2022-12-08T15:50:54.384Z,100.00
2022-12-08T15:53:20.764Z,100.00
2022-12-08T15:56:10.810Z,100.00
2022-12-08T16:01:20.795Z,100.00
2022-12-08T16:09:39.657Z,100.00
2022-12-08T16:12:40.949Z,100.00
2022-12-08T16:18:00.612Z,100.00
2022-12-08T16:20:43.919Z,100.00
2022-12-08T16:23:41.097Z,100.00
2022-12-08T16:26:28.374Z,100.00
2022-12-08T16:28:55.020Z,100.00
2022-12-08T16:31:23.425Z,100.00
2022-12-08T16:33:49.897Z,100.00
2022-12-08T16:36:16.211Z,100.00
2022-12-08T16:38:42.830Z,100.00
2022-12-08T16:41:34.375Z,100.00
2022-12-08T16:44:05.440Z,100.00
2022-12-08T16:46:32.170Z,100.00
2022-12-08T16:48:59.114Z,100.00
2022-12-08T16:51:27.292Z,100.00
2022-12-08T16:53:57.140Z,100.00
2022-12-08T16:56:30.434Z,100.00
2022-12-08T16:58:59.125Z,100.00
2022-12-08T17:01:25.609Z,100.00
2022-12-08T17:04:22.579Z,100.00
2022-12-08T17:06:38.624Z,100.00
2022-12-08T17:09:05.263Z,100.00
2022-12-08T17:11:37.474Z,100.00
2022-12-08T17:14:05.907Z,100.00
2022-12-08T17:16:32.327Z,100.00
2022-12-08T17:18:58.820Z,100.00
2022-12-08T17:21:25.516Z,100.00
2022-12-08T17:23:51.930Z,100.00
2022-12-08T17:26:18.218Z,100.00
2022-12-08T17:28:59.998Z,100.00
2022-12-08T17:31:29.865Z,100.00
2022-12-08T17:34:01.698Z,100.00
2022-12-08T17:36:28.045Z,100.00
2022-12-08T17:38:55.127Z,100.00
2022-12-08T17:41:21.751Z,100.00
2022-12-08T17:43:48.064Z,100.00
2022-12-08T17:46:21.194Z,100.00
2022-12-08T17:48:47.910Z,100.00
2022-12-08T17:51:14.576Z,100.00
2022-12-08T17:53:40.954Z,100.00
2022-12-08T17:56:14.832Z,100.00
2022-12-08T17:58:41.084Z,100.00
2022-12-08T18:01:11.557Z,100.00
2022-12-08T18:03:38.885Z,100.00
2022-12-08T18:06:09.738Z,100.00
2022-12-08T18:08:36.682Z,100.00
2022-12-08T18:11:04.017Z,100.00
2022-12-08T18:13:30.496Z,100.00
2022-12-08T18:15:56.866Z,100.00
2022-12-08T18:18:23.677Z,100.00
2022-12-08T18:20:50.201Z,100.00
2022-12-08T18:23:17.335Z,100.00
2022-12-08T18:25:44.367Z,100.00
2022-12-08T18:28:10.727Z,100.00
2022-12-08T18:30:37.466Z,100.00
2022-12-08T18:33:04.968Z,100.00
2022-12-08T18:35:31.310Z,100.00
2022-12-08T18:37:58.491Z,100.00
2022-12-08T18:40:25.107Z,100.00
2022-12-08T18:42:51.507Z,100.00
2022-12-08T18:45:22.597Z,100.00
2022-12-08T18:47:50.850Z,100.00
2022-12-08T18:50:17.660Z,100.00
2022-12-08T18:52:45.459Z,100.00
2022-12-08T18:55:12.311Z,100.00
2022-12-08T18:57:40.282Z,100.00
2022-12-08T19:00:08.030Z,100.00
2022-12-08T19:02:36.150Z,100.00
2022-12-08T19:05:02.650Z,100.00
2022-12-08T19:07:28.969Z,100.00
2022-12-08T19:09:56.214Z,100.00
2022-12-08T19:12:22.753Z,100.00
2022-12-08T19:14:49.108Z,100.00
2022-12-08T19:17:15.744Z,100.00
2022-12-08T19:19:42.054Z,100.00
2022-12-08T19:22:08.448Z,100.00
2022-12-08T19:24:36.668Z,100.00
2022-12-08T19:27:04.441Z,100.00
2022-12-08T19:29:30.822Z,100.00
2022-12-08T19:31:57.530Z,100.00
2022-12-08T19:34:24.287Z,100.00
2022-12-08T19:36:50.624Z,100.00
2022-12-08T19:39:40.795Z,100.00
2022-12-08T19:42:32.980Z,100.00
2022-12-08T19:45:07.016Z,100.00
2022-12-08T19:47:33.539Z,100.00
2022-12-08T19:50:19.016Z,100.00
2022-12-08T19:52:45.424Z,100.00
2022-12-08T19:55:12.635Z,100.00
2022-12-08T19:57:38.940Z,100.00
2022-12-08T20:00:06.725Z,100.00
2022-12-08T20:02:36.614Z,100.00
2022-12-08T20:05:07.578Z,100.00
2022-12-08T20:07:34.204Z,100.00
2022-12-08T20:10:00.734Z,100.00
2022-12-08T20:12:27.375Z,100.00
2022-12-08T20:14:53.680Z,100.00
2022-12-08T20:17:19.995Z,100.00
2022-12-08T20:19:46.621Z,100.00
2022-12-08T20:22:13.312Z,100.00
2022-12-08T20:24:39.697Z,100.00
2022-12-08T20:27:06.365Z,100.00
2022-12-08T20:29:32.841Z,100.00
2022-12-08T20:31:59.292Z,100.00
2022-12-08T20:34:26.035Z,100.00
2022-12-08T20:36:52.405Z,100.00
2022-12-08T20:39:18.955Z,100.00
2022-12-08T20:41:46.364Z,100.00
2022-12-08T20:44:12.819Z,100.00
2022-12-08T20:46:39.361Z,100.00
2022-12-08T20:49:06.082Z,100.00
2022-12-08T20:51:33.539Z,100.00
2022-12-08T20:54:00.320Z,100.00
2022-12-08T20:56:27.186Z,100.00
2022-12-08T20:58:53.931Z,100.00
2022-12-08T21:01:23.010Z,100.00
2022-12-08T21:03:50.420Z,100.00
2022-12-08T21:06:21.048Z,100.00
2022-12-08T21:08:47.495Z,100.00
2022-12-08T21:11:14.257Z,100.00
2022-12-08T21:13:40.549Z,100.00
2022-12-08T21:16:11.770Z,100.00
2022-12-08T21:18:39.866Z,100.00
2022-12-08T21:21:08.903Z,100.00
2022-12-08T21:23:35.621Z,100.00
2022-12-08T21:26:02.678Z,100.00
2022-12-08T21:28:28.978Z,100.00
2022-12-08T21:30:55.854Z,100.00
2022-12-08T21:33:22.796Z,100.00
2022-12-08T21:35:49.337Z,100.00
2022-12-08T21:38:15.786Z,100.00
2022-12-08T21:40:42.966Z,100.00
2022-12-08T21:43:09.425Z,100.00
2022-12-08T21:45:35.852Z,100.00
2022-12-08T21:48:11.031Z,100.00
2022-12-08T21:50:38.330Z,100.00
2022-12-08T21:53:05.203Z,100.00
2022-12-08T21:55:31.600Z,100.00
2022-12-08T21:58:00.972Z,100.00
2022-12-08T22:00:28.067Z,100.00
2022-12-08T22:02:55.036Z,100.00
2022-12-08T22:05:21.983Z,100.00
2022-12-08T22:07:48.496Z,100.00
2022-12-08T22:10:15.401Z,100.00
2022-12-08T22:12:41.823Z,100.00
2022-12-08T22:15:11.052Z,100.00
2022-12-08T22:17:39.901Z,100.00
2022-12-08T22:20:08.656Z,100.00
2022-12-08T22:22:35.341Z,100.00
2022-12-08T22:25:03.924Z,100.00
2022-12-08T22:27:30.499Z,100.00
2022-12-08T22:29:56.774Z,100.00
2022-12-08T22:32:23.543Z,100.00
2022-12-08T22:34:49.921Z,100.00
2022-12-08T22:37:16.176Z,100.00
2022-12-08T22:39:42.741Z,100.00
2022-12-08T22:42:09.022Z,100.00
2022-12-08T22:44:35.247Z,100.00
2022-12-08T22:47:01.802Z,100.00
2022-12-08T22:49:28.898Z,100.00
2022-12-08T22:51:55.369Z,100.00
2022-12-08T22:54:21.944Z,100.00
2022-12-08T22:56:48.246Z,100.00
2022-12-08T22:59:14.702Z,100.00
2022-12-08T23:01:41.315Z,100.00
2022-12-08T23:04:14.177Z,100.00
2022-12-08T23:06:43.923Z,100.00
2022-12-08T23:09:10.467Z,100.00
2022-12-08T23:11:37.088Z,100.00
2022-12-08T23:14:03.869Z,100.00
2022-12-08T23:16:30.465Z,100.00
2022-12-08T23:18:56.995Z,100.00
2022-12-08T23:21:23.968Z,100.00
2022-12-08T23:23:50.490Z,100.00
2022-12-08T23:26:22.456Z,100.00
2022-12-08T23:28:49.760Z,100.00
2022-12-08T23:31:16.977Z,100.00
2022-12-08T23:33:43.796Z,100.00
2022-12-08T23:36:11.099Z,100.00
2022-12-08T23:38:37.786Z,100.00
2022-12-08T23:41:06.581Z,100.00
2022-12-08T23:43:33.560Z,100.00
2022-12-08T23:45:59.993Z,100.00
2022-12-08T23:48:27.995Z,100.00
2022-12-08T23:50:55.014Z,100.00
2022-12-08T23:53:21.325Z,100.00
2022-12-08T23:55:47.899Z,100.00
2022-12-08T23:58:14.484Z,100.00
